Time;durP1;ratioP1;P1;durP2;ratioP2;P2;SDS_P1;SDS_P2;PMS_P1;PMS_P2;Temp;Humidity;BMP_temperature;BMP_pressure;BME280_temperature;BME280_humidity;BME280_pressure;Samples;Min_cycle;Max_cycle;Signal;HPM_P1;HPM_P2
2024/03/26 00:02:34;;;;;;;8.38;2.50;;;7.90;99.90;;;;;;5027487;28;20017;-80
2024/03/26 00:05:00;;;;;;;9.48;2.70;;;7.90;99.90;;;;;;5024494;28;20562;-79
2024/03/26 00:07:25;;;;;;;6.88;2.50;;;7.90;99.90;;;;;;5016660;28;20029;-79
2024/03/26 00:09:51;;;;;;;8.70;3.10;;;7.90;99.90;;;;;;5025945;28;20072;-79
2024/03/26 00:12:17;;;;;;;8.75;2.35;;;7.80;99.90;;;;;;5013945;28;20060;-79
2024/03/26 00:14:42;;;;;;;8.40;2.35;;;7.80;99.90;;;;;;5014574;28;20024;-79
2024/03/26 00:17:08;;;;;;;7.63;3.00;;;7.80;99.90;;;;;;5021689;28;20030;-79
2024/03/26 00:19:35;;;;;;;6.25;2.63;;;7.80;99.90;;;;;;5018455;28;20072;-79
2024/03/26 00:22:00;;;;;;;7.75;2.63;;;7.80;99.90;;;;;;5019080;28;20021;-80
2024/03/26 00:24:26;;;;;;;8.93;2.53;;;7.80;99.90;;;;;;5020643;28;20478;-79
2024/03/26 00:26:52;;;;;;;6.82;2.80;;;7.70;99.90;;;;;;5018677;28;20135;-79
2024/03/26 00:29:17;;;;;;;10.02;2.80;;;7.70;99.90;;;;;;5020291;28;20029;-80
2024/03/26 00:31:43;;;;;;;9.82;3.30;;;7.70;99.90;;;;;;5016655;28;20033;-79
2024/03/26 00:34:09;;;;;;;7.93;2.70;;;7.70;99.90;;;;;;5021666;28;20037;-79
2024/03/26 00:36:34;;;;;;;8.48;2.78;;;7.60;99.90;;;;;;5027409;28;20391;-80
2024/03/26 00:39:00;;;;;;;7.68;2.70;;;7.60;99.90;;;;;;5013483;28;20494;-80
2024/03/26 00:41:26;;;;;;;10.52;2.83;;;7.60;99.90;;;;;;5027639;28;20033;-79
2024/03/26 00:43:52;;;;;;;6.78;2.70;;;7.60;99.90;;;;;;5015366;28;20049;-80
2024/03/26 00:46:17;;;;;;;10.80;3.10;;;7.60;99.90;;;;;;5020016;28;20945;-80
2024/03/26 00:48:43;;;;;;;6.75;2.55;;;7.50;99.90;;;;;;5017283;28;20040;-79
2024/03/26 00:51:09;;;;;;;8.27;2.83;;;7.50;99.90;;;;;;5025865;28;20040;-80
2024/03/26 00:53:34;;;;;;;7.25;3.05;;;7.50;99.90;;;;;;5014617;28;20299;-79
2024/03/26 00:56:00;;;;;;;6.03;2.60;;;7.50;99.90;;;;;;5013778;28;20502;-79
2024/03/26 00:58:26;;;;;;;7.38;2.47;;;7.40;99.90;;;;;;5012616;28;20171;-79
2024/03/26 01:00:51;;;;;;;7.00;2.60;;;7.40;99.90;;;;;;5015720;28;20037;-79
2024/03/26 01:03:17;;;;;;;7.07;2.78;;;7.40;99.90;;;;;;5021418;28;20101;-79
2024/03/26 01:05:57;;;;;;;8.70;2.65;;;7.40;99.90;;;;;;5017029;28;20029;-79
2024/03/26 01:08:23;;;;;;;5.43;2.33;;;7.40;99.90;;;;;;5012974;28;20032;-79
2024/03/26 01:10:48;;;;;;;8.20;2.75;;;7.40;99.90;;;;;;5018354;28;20022;-79
2024/03/26 01:13:14;;;;;;;8.35;2.90;;;7.40;99.90;;;;;;5020984;28;20041;-79
2024/03/26 01:15:41;;;;;;;9.32;2.70;;;7.30;99.90;;;;;;5014893;28;20076;-79
2024/03/26 01:18:06;;;;;;;7.72;2.42;;;7.30;99.90;;;;;;5024890;28;20388;-79
2024/03/26 01:20:32;;;;;;;6.78;2.78;;;7.30;99.90;;;;;;5012816;28;20029;-78
2024/03/26 01:23:00;;;;;;;7.47;2.50;;;7.30;99.90;;;;;;5026445;28;20141;-79
2024/03/26 01:25:26;;;;;;;9.20;3.00;;;7.30;99.90;;;;;;5018494;28;20402;-78
2024/03/26 01:27:53;;;;;;;8.93;2.55;;;7.20;99.90;;;;;;5016069;28;20037;-78
2024/03/26 01:30:19;;;;;;;7.28;2.90;;;7.20;99.90;;;;;;5011779;28;20022;-79
2024/03/26 01:32:44;;;;;;;10.15;2.50;;;7.20;99.90;;;;;;5017929;28;20029;-79
2024/03/26 01:35:10;;;;;;;8.40;2.58;;;7.20;99.90;;;;;;5012693;28;20391;-79
2024/03/26 01:37:36;;;;;;;6.38;2.40;;;7.10;99.90;;;;;;5020500;28;20025;-78
2024/03/26 01:40:02;;;;;;;4.90;2.13;;;7.10;99.90;;;;;;5015289;28;20018;-79
2024/03/26 01:42:28;;;;;;;6.65;2.78;;;7.10;99.90;;;;;;5012705;28;20053;-78
2024/03/26 01:44:53;;;;;;;9.82;3.08;;;7.10;99.90;;;;;;5020546;28;20494;-79
2024/03/26 01:47:20;;;;;;;7.35;2.28;;;7.10;99.90;;;;;;5018303;28;20485;-80
2024/03/26 01:49:46;;;;;;;8.02;2.63;;;7.10;99.90;;;;;;5027151;28;20101;-78
2024/03/26 01:52:12;;;;;;;8.07;2.75;;;7.10;99.90;;;;;;5016294;28;20026;-78
2024/03/26 01:54:40;;;;;;;6.95;2.65;;;7.00;99.90;;;;;;5012105;28;20033;-79
2024/03/26 01:57:06;;;;;;;8.15;2.58;;;7.00;99.90;;;;;;5026214;28;20475;-79
2024/03/26 01:59:32;;;;;;;7.00;2.75;;;7.00;99.90;;;;;;5026202;28;20030;-79
2024/03/26 02:01:58;;;;;;;7.80;2.45;;;7.00;99.90;;;;;;5028297;28;20506;-80
2024/03/26 02:04:24;;;;;;;8.43;2.75;;;7.00;99.90;;;;;;5026282;28;20078;-79
2024/03/26 02:06:49;;;;;;;5.97;2.72;;;7.00;99.90;;;;;;5026481;28;20574;-79
2024/03/26 02:09:15;;;;;;;9.93;2.80;;;7.00;99.90;;;;;;5015356;28;20636;-80
2024/03/26 02:11:41;;;;;;;12.20;2.88;;;7.00;99.90;;;;;;5019063;28;20702;-79
2024/03/26 02:14:07;;;;;;;12.20;3.45;;;6.90;99.90;;;;;;5014909;28;20073;-81
2024/03/26 02:16:32;;;;;;;7.30;2.75;;;6.90;99.90;;;;;;5024929;28;20076;-79
2024/03/26 02:18:58;;;;;;;7.57;2.92;;;6.90;99.90;;;;;;5019114;28;20042;-80
2024/03/26 02:21:24;;;;;;;8.52;3.17;;;6.90;99.90;;;;;;5017951;28;20110;-79
2024/03/26 02:23:50;;;;;;;7.90;2.92;;;6.90;99.90;;;;;;5019503;28;20033;-79
2024/03/26 02:26:16;;;;;;;5.60;2.67;;;6.90;99.90;;;;;;5017405;28;20033;-79
2024/03/26 02:28:42;;;;;;;7.65;2.92;;;6.90;99.90;;;;;;5010118;28;20144;-80
2024/03/26 02:31:08;;;;;;;7.22;3.53;;;6.90;99.90;;;;;;5035692;28;20213;-79
2024/03/26 02:33:33;;;;;;;8.25;3.08;;;6.90;99.90;;;;;;5016843;28;20022;-78
2024/03/26 02:35:59;;;;;;;7.68;2.58;;;6.90;99.90;;;;;;5022889;28;20014;-79
2024/03/26 02:38:25;;;;;;;11.00;3.53;;;6.80;99.90;;;;;;5014838;28;20442;-79
2024/03/26 02:40:50;;;;;;;8.02;3.00;;;6.90;99.90;;;;;;5035966;28;20508;-79
2024/03/26 02:43:16;;;;;;;6.05;2.80;;;6.90;99.90;;;;;;5028316;28;20040;-79
2024/03/26 02:45:42;;;;;;;7.55;3.00;;;6.90;99.90;;;;;;5016652;28;20411;-79
2024/03/26 02:48:07;;;;;;;8.02;3.25;;;6.90;99.90;;;;;;5022225;28;20713;-79
2024/03/26 02:50:33;;;;;;;6.45;2.55;;;6.90;99.90;;;;;;5019141;28;20492;-79
2024/03/26 02:52:59;;;;;;;9.40;3.03;;;6.90;99.90;;;;;;5023260;28;20554;-79
2024/03/26 02:55:24;;;;;;;9.93;3.15;;;6.90;99.90;;;;;;5018545;28;20025;-79
2024/03/26 02:57:50;;;;;;;8.70;3.38;;;6.80;99.90;;;;;;5028990;28;20032;-79
2024/03/26 03:00:16;;;;;;;8.15;2.65;;;6.80;99.90;;;;;;5029407;28;20021;-79
2024/03/26 03:02:41;;;;;;;6.82;3.08;;;6.80;99.90;;;;;;5028610;28;20035;-79
2024/03/26 03:05:07;;;;;;;6.70;2.70;;;6.80;99.90;;;;;;5028157;28;20017;-79
2024/03/26 03:07:33;;;;;;;7.30;2.50;;;6.80;99.90;;;;;;5028513;28;20022;-80
2024/03/26 03:09:58;;;;;;;7.53;2.60;;;6.80;99.90;;;;;;5026954;28;20072;-80
2024/03/26 03:12:24;;;;;;;8.63;3.03;;;6.80;99.90;;;;;;5008859;28;20040;-79
2024/03/26 03:14:50;;;;;;;7.25;2.90;;;6.80;99.90;;;;;;5023298;28;20124;-79
2024/03/26 03:17:15;;;;;;;7.32;3.10;;;6.80;99.90;;;;;;5015357;28;20026;-80
2024/03/26 03:19:41;;;;;;;6.20;2.55;;;6.80;99.90;;;;;;5015939;28;20346;-79
2024/03/26 03:22:07;;;;;;;11.27;3.42;;;6.80;99.90;;;;;;5027407;28;20067;-80
2024/03/26 03:24:32;;;;;;;8.23;2.88;;;6.80;99.90;;;;;;5017935;28;20025;-79
2024/03/26 03:26:58;;;;;;;10.38;3.38;;;6.80;99.90;;;;;;5025162;28;20037;-79
2024/03/26 03:29:24;;;;;;;6.20;2.80;;;6.80;99.90;;;;;;5023581;28;20057;-79
2024/03/26 03:31:50;;;;;;;5.55;2.60;;;6.80;99.90;;;;;;5019705;28;20507;-80
2024/03/26 03:34:15;;;;;;;8.32;2.75;;;6.80;99.90;;;;;;5014271;28;20624;-79
2024/03/26 03:36:41;;;;;;;9.43;2.85;;;6.80;99.90;;;;;;5027411;28;20108;-80
2024/03/26 03:39:08;;;;;;;7.90;2.85;;;6.80;99.90;;;;;;5014520;28;20030;-79
2024/03/26 03:41:34;;;;;;;9.70;3.00;;;6.80;99.90;;;;;;5021784;28;20101;-79
2024/03/26 03:44:00;;;;;;;6.80;2.60;;;6.70;99.90;;;;;;5036549;28;20108;-79
2024/03/26 03:46:25;;;;;;;10.05;3.13;;;6.70;99.90;;;;;;5014575;28;20025;-79
2024/03/26 03:48:51;;;;;;;7.45;2.75;;;6.70;99.90;;;;;;5017427;28;20034;-79
2024/03/26 03:51:16;;;;;;;9.60;3.08;;;6.70;99.90;;;;;;5022687;28;20034;-79
2024/03/26 03:53:42;;;;;;;6.85;2.63;;;6.60;99.90;;;;;;5016603;28;20021;-79
2024/03/26 03:56:07;;;;;;;8.05;2.78;;;6.60;99.90;;;;;;5014499;28;20052;-80
2024/03/26 03:58:33;;;;;;;5.80;3.03;;;6.60;99.90;;;;;;5020942;28;20022;-79
2024/03/26 04:00:59;;;;;;;7.15;2.90;;;6.60;99.90;;;;;;5021299;28;20493;-80
2024/03/26 04:03:24;;;;;;;4.68;2.38;;;6.60;99.90;;;;;;5013958;28;20030;-79
2024/03/26 04:05:50;;;;;;;8.10;2.88;;;6.60;99.90;;;;;;5017614;28;20033;-79
2024/03/26 04:08:16;;;;;;;7.45;2.83;;;6.60;99.90;;;;;;5021606;28;20033;-79
2024/03/26 04:10:46;;;;;;;7.28;2.78;;;6.60;99.90;;;;;;5016689;28;20033;-79
2024/03/26 04:13:12;;;;;;;9.20;3.10;;;6.50;99.90;;;;;;5011894;28;20021;-80
2024/03/26 04:15:41;;;;;;;6.45;2.97;;;6.50;99.90;;;;;;5020345;28;20030;-79
2024/03/26 04:18:07;;;;;;;9.05;2.90;;;6.50;99.90;;;;;;5020831;28;20057;-79
2024/03/26 04:20:32;;;;;;;8.02;2.95;;;6.50;99.90;;;;;;5013623;28;20034;-79
2024/03/26 04:22:58;;;;;;;8.95;2.63;;;6.40;99.90;;;;;;5027564;28;20450;-80
2024/03/26 04:25:24;;;;;;;5.97;2.75;;;6.40;99.90;;;;;;5022697;28;20031;-79
2024/03/26 04:27:50;;;;;;;6.47;2.67;;;6.40;99.90;;;;;;5017507;28;20441;-79
2024/03/26 04:30:15;;;;;;;8.00;3.00;;;6.40;99.90;;;;;;5011678;28;20084;-79
2024/03/26 04:32:41;;;;;;;10.85;3.13;;;6.40;99.90;;;;;;5020848;28;20036;-79
2024/03/26 04:35:07;;;;;;;7.35;2.72;;;6.40;99.90;;;;;;5017417;28;20056;-80
2024/03/26 04:37:32;;;;;;;10.02;3.10;;;6.30;99.90;;;;;;5028144;28;20116;-80
2024/03/26 04:39:58;;;;;;;7.20;2.88;;;6.30;99.90;;;;;;5019984;28;20097;-79
2024/03/26 04:42:24;;;;;;;7.20;2.65;;;6.30;99.90;;;;;;5036188;28;20508;-80
2024/03/26 04:44:50;;;;;;;7.50;3.10;;;6.30;99.90;;;;;;5012858;28;20021;-80
2024/03/26 04:47:15;;;;;;;7.55;2.60;;;6.30;99.90;;;;;;5027331;28;20037;-79
2024/03/26 04:49:41;;;;;;;7.80;2.90;;;6.30;99.90;;;;;;5022813;28;20489;-79
2024/03/26 04:52:07;;;;;;;9.13;3.28;;;6.20;99.90;;;;;;5017038;28;20037;-79
2024/03/26 04:54:34;;;;;;;8.93;3.05;;;6.20;99.90;;;;;;5012000;28;20030;-80
2024/03/26 04:57:00;;;;;;;10.80;3.25;;;6.20;99.90;;;;;;5025790;28;20560;-80
2024/03/26 04:59:26;;;;;;;7.32;3.20;;;6.20;99.90;;;;;;5026681;28;20148;-80
2024/03/26 05:01:51;;;;;;;4.93;2.45;;;6.10;99.90;;;;;;5013608;28;20018;-79
2024/03/26 05:04:17;;;;;;;6.20;2.80;;;6.10;99.90;;;;;;5015185;28;20037;-80
2024/03/26 05:06:43;;;;;;;7.00;2.50;;;6.10;99.90;;;;;;5022629;28;20051;-79
2024/03/26 05:09:09;;;;;;;9.10;2.88;;;6.10;99.90;;;;;;5015549;28;20026;-79
2024/03/26 05:11:38;;;;;;;7.20;2.60;;;6.10;99.90;;;;;;5032245;28;20044;-79
2024/03/26 05:14:04;;;;;;;9.25;2.80;;;6.10;99.90;;;;;;5014846;28;20032;-80
2024/03/26 05:16:30;;;;;;;6.05;2.50;;;6.10;99.90;;;;;;5026271;28;20547;-79
2024/03/26 05:18:56;;;;;;;9.25;2.83;;;6.10;99.90;;;;;;5013298;28;20045;-80
2024/03/26 05:21:22;;;;;;;6.22;2.78;;;6.10;99.90;;;;;;5018403;28;20037;-79
2024/03/26 05:23:48;;;;;;;6.72;2.75;;;6.00;99.90;;;;;;5021974;28;20034;-79
2024/03/26 05:26:13;;;;;;;7.50;3.22;;;6.00;99.90;;;;;;5017272;28;20029;-80
2024/03/26 05:28:39;;;;;;;6.43;2.75;;;6.00;99.90;;;;;;5025748;28;20558;-79
2024/03/26 05:31:19;;;;;;;8.93;3.20;;;5.90;99.90;;;;;;5012997;28;20025;-79
2024/03/26 05:33:46;;;;;;;8.38;3.63;;;6.00;99.90;;;;;;5013229;28;20030;-79
2024/03/26 05:36:13;;;;;;;6.95;3.03;;;5.90;99.90;;;;;;5021215;28;20034;-79
2024/03/26 05:38:39;;;;;;;6.13;2.83;;;5.90;99.90;;;;;;5016935;28;20022;-79
2024/03/26 05:41:05;;;;;;;7.43;2.67;;;5.90;99.90;;;;;;5012732;28;20021;-79
2024/03/26 05:43:30;;;;;;;10.32;3.08;;;5.90;99.90;;;;;;5015800;28;20672;-79
2024/03/26 05:45:56;;;;;;;8.70;2.97;;;5.90;99.90;;;;;;5021446;28;20033;-79
2024/03/26 05:48:22;;;;;;;5.10;2.95;;;5.90;99.90;;;;;;5025916;28;20041;-79
2024/03/26 05:50:47;;;;;;;5.63;2.80;;;5.90;99.90;;;;;;5026462;28;20670;-79
2024/03/26 05:53:13;;;;;;;5.93;2.88;;;5.90;99.90;;;;;;5012109;28;20030;-79
2024/03/26 05:55:39;;;;;;;7.88;2.83;;;5.90;99.90;;;;;;5025275;28;20075;-79
2024/03/26 05:58:05;;;;;;;10.30;2.85;;;5.90;99.90;;;;;;5023315;28;20057;-78
2024/03/26 06:00:30;;;;;;;6.45;2.80;;;5.80;99.90;;;;;;5016425;28;20024;-79
2024/03/26 06:02:56;;;;;;;7.05;2.90;;;5.90;99.90;;;;;;5014150;28;20406;-79
2024/03/26 06:05:22;;;;;;;6.80;3.00;;;5.80;99.90;;;;;;5020785;28;20531;-79
2024/03/26 06:07:48;;;;;;;5.57;2.75;;;5.90;99.90;;;;;;5023817;28;20033;-79
2024/03/26 06:10:13;;;;;;;5.78;2.55;;;5.90;99.90;;;;;;5038046;28;20137;-79
2024/03/26 06:12:41;;;;;;;6.70;2.70;;;5.80;99.90;;;;;;5023835;28;20087;-79
2024/03/26 06:15:07;;;;;;;7.07;3.03;;;5.90;99.90;;;;;;5024868;28;20021;-79
2024/03/26 06:17:33;;;;;;;9.18;2.88;;;5.80;99.90;;;;;;5027458;28;20036;-79
2024/03/26 06:19:59;;;;;;;8.15;2.90;;;5.90;99.90;;;;;;5035923;28;20091;-79
2024/03/26 06:22:25;;;;;;;7.05;3.63;;;5.90;99.90;;;;;;5023521;28;20099;-79
2024/03/26 06:24:51;;;;;;;10.60;3.20;;;5.90;99.90;;;;;;5029878;28;20025;-79
2024/03/26 06:27:16;;;;;;;6.60;3.08;;;5.90;99.90;;;;;;5017621;28;20466;-79
2024/03/26 06:29:42;;;;;;;7.15;3.00;;;5.90;99.90;;;;;;5028358;28;20487;-79
2024/03/26 06:32:08;;;;;;;7.82;3.33;;;5.90;99.90;;;;;;5027446;28;20034;-79
2024/03/26 06:34:35;;;;;;;7.05;3.08;;;5.90;99.90;;;;;;5030395;28;20029;-79
2024/03/26 06:37:01;;;;;;;9.02;3.13;;;5.90;99.90;;;;;;5031087;28;20156;-79
2024/03/26 06:39:26;;;;;;;5.97;2.90;;;6.00;99.90;;;;;;5018542;28;20108;-78
2024/03/26 06:41:52;;;;;;;7.88;2.70;;;6.00;99.90;;;;;;5026190;28;20021;-78
2024/03/26 06:44:18;;;;;;;7.55;3.10;;;6.00;99.90;;;;;;5030504;28;20064;-78
2024/03/26 06:46:43;;;;;;;9.20;2.92;;;6.10;99.90;;;;;;5027641;28;20107;-77
2024/03/26 06:49:09;;;;;;;5.95;3.45;;;6.10;99.90;;;;;;5029826;28;20032;-78
2024/03/26 06:51:35;;;;;;;8.88;2.97;;;6.10;99.90;;;;;;5026756;28;20033;-77
2024/03/26 06:54:00;;;;;;;5.97;3.15;;;6.10;99.90;;;;;;5030505;28;20033;-77
2024/03/26 06:56:26;;;;;;;8.05;3.00;;;6.20;99.90;;;;;;5032331;28;20033;-78
2024/03/26 06:58:51;;;;;;;9.38;3.50;;;6.20;99.90;;;;;;5024182;28;20030;-77
2024/03/26 07:01:17;;;;;;;5.72;2.90;;;6.20;99.90;;;;;;5028939;28;20021;-78
2024/03/26 07:03:43;;;;;;;6.15;2.75;;;6.20;99.90;;;;;;5033118;28;20528;-77
2024/03/26 07:06:09;;;;;;;8.30;3.47;;;6.20;99.90;;;;;;5033055;28;20057;-77
2024/03/26 07:08:35;;;;;;;6.57;2.95;;;6.30;99.90;;;;;;5027462;28;20022;-78
2024/03/26 07:11:02;;;;;;;14.40;3.20;;;6.30;99.90;;;;;;5019805;28;20025;-77
2024/03/26 07:13:27;;;;;;;7.38;2.83;;;6.30;99.90;;;;;;5027365;28;20255;-80
2024/03/26 07:15:53;;;;;;;6.10;3.15;;;6.40;99.90;;;;;;5021416;28;20030;-77
2024/03/26 07:18:19;;;;;;;7.95;2.90;;;6.40;99.90;;;;;;5025451;28;20120;-78
2024/03/26 07:20:46;;;;;;;9.65;3.38;;;6.40;99.90;;;;;;5030373;28;20562;-77
2024/03/26 07:23:27;;;;;;;7.55;3.05;;;6.40;99.90;;;;;;5028513;28;20499;-77
2024/03/26 07:25:54;;;;;;;7.15;3.08;;;6.50;99.90;;;;;;5009046;28;20559;-78
2024/03/26 07:28:21;;;;;;;10.25;3.33;;;6.60;99.90;;;;;;5021688;28;20155;-77
2024/03/26 07:30:47;;;;;;;7.20;2.85;;;6.60;99.90;;;;;;5024259;28;20045;-77
2024/03/26 07:33:12;;;;;;;6.00;3.00;;;6.60;99.90;;;;;;5028016;28;20022;-77
2024/03/26 07:35:39;;;;;;;6.70;3.30;;;6.70;99.90;;;;;;5014281;28;20028;-77
2024/03/26 07:38:04;;;;;;;7.78;3.20;;;6.70;99.90;;;;;;5026224;28;20041;-77
2024/03/26 07:40:30;;;;;;;8.40;3.40;;;6.80;99.90;;;;;;5028399;28;20057;-77
2024/03/26 07:42:56;;;;;;;6.28;2.90;;;6.80;99.90;;;;;;5025241;28;20022;-77
2024/03/26 07:45:22;;;;;;;6.82;3.00;;;6.90;99.90;;;;;;5025161;28;20152;-78
2024/03/26 07:47:48;;;;;;;6.47;3.10;;;7.00;99.90;;;;;;5029014;28;20072;-78
2024/03/26 07:50:14;;;;;;;5.82;3.03;;;7.00;99.90;;;;;;5018273;28;20026;-77
2024/03/26 07:52:40;;;;;;;8.27;3.28;;;7.10;99.90;;;;;;5022361;28;20125;-77
2024/03/26 07:55:06;;;;;;;5.75;3.03;;;7.10;99.90;;;;;;5026234;28;20018;-77
2024/03/26 07:57:31;;;;;;;8.10;3.50;;;7.20;99.90;;;;;;5028119;28;20022;-77
2024/03/26 07:59:57;;;;;;;7.72;3.50;;;7.20;99.90;;;;;;5027426;28;20096;-78
2024/03/26 08:02:23;;;;;;;9.23;3.50;;;7.30;99.90;;;;;;5021730;28;20057;-77
2024/03/26 08:04:49;;;;;;;8.45;3.08;;;7.30;99.90;;;;;;5026353;28;20060;-77
2024/03/26 08:07:16;;;;;;;6.03;3.50;;;7.40;99.90;;;;;;5027869;28;20053;-76
2024/03/26 08:09:41;;;;;;;11.13;3.40;;;7.40;99.90;;;;;;5012960;28;20068;-77
2024/03/26 08:12:07;;;;;;;8.45;3.05;;;7.50;99.90;;;;;;5021497;28;20057;-77
2024/03/26 08:14:33;;;;;;;8.98;3.10;;;7.60;99.90;;;;;;5019947;28;20057;-77
2024/03/26 08:16:59;;;;;;;7.70;2.80;;;7.60;99.90;;;;;;5027611;28;20017;-77
2024/03/26 08:19:24;;;;;;;4.20;2.60;;;7.70;99.90;;;;;;5016629;28;20054;-78
2024/03/26 08:21:50;;;;;;;10.23;3.20;;;7.80;99.90;;;;;;5024174;28;20072;-78
2024/03/26 08:24:16;;;;;;;7.93;3.08;;;7.90;99.90;;;;;;5022901;28;20050;-78
2024/03/26 08:26:42;;;;;;;7.10;2.58;;;7.90;99.90;;;;;;5027116;28;20548;-77
2024/03/26 08:29:07;;;;;;;5.45;2.92;;;8.00;99.90;;;;;;5016902;28;20040;-77
2024/03/26 08:31:33;;;;;;;8.32;2.90;;;8.00;99.90;;;;;;5025369;28;20331;-78
2024/03/26 08:33:59;;;;;;;5.47;2.95;;;8.10;99.90;;;;;;5024557;28;20389;-76
2024/03/26 08:36:25;;;;;;;11.80;3.08;;;8.20;99.90;;;;;;5020181;28;20029;-77
2024/03/26 08:38:51;;;;;;;8.48;3.10;;;8.20;99.90;;;;;;5021504;28;20162;-77
2024/03/26 08:41:17;;;;;;;9.48;3.20;;;8.20;99.90;;;;;;5023411;28;20057;-78
2024/03/26 08:43:42;;;;;;;4.93;2.72;;;8.20;99.90;;;;;;5011330;28;20108;-77
2024/03/26 08:46:08;;;;;;;5.97;2.75;;;8.30;99.90;;;;;;5023903;28;20037;-79
2024/03/26 08:48:34;;;;;;;5.90;3.08;;;8.30;99.90;;;;;;5026048;28;20025;-77
2024/03/26 08:51:00;;;;;;;5.78;2.72;;;8.30;99.90;;;;;;5019077;28;20569;-78
2024/03/26 08:53:25;;;;;;;7.00;3.25;;;8.30;99.90;;;;;;5015672;28;20530;-78
2024/03/26 08:55:51;;;;;;;7.28;3.20;;;8.40;99.90;;;;;;5024605;28;20529;-77
2024/03/26 08:58:17;;;;;;;8.40;3.58;;;8.40;99.90;;;;;;5021107;28;20065;-77
2024/03/26 09:00:42;;;;;;;7.85;3.28;;;8.50;99.90;;;;;;5014521;28;20294;-77
2024/03/26 09:03:08;;;;;;;7.30;3.03;;;8.50;99.90;;;;;;5024847;28;20402;-77
2024/03/26 09:05:33;;;;;;;7.03;3.35;;;8.50;99.90;;;;;;5013317;28;20026;-77
2024/03/26 09:07:59;;;;;;;11.35;3.20;;;8.60;99.90;;;;;;5012168;28;20026;-77
2024/03/26 09:10:25;;;;;;;8.30;3.70;;;8.60;99.90;;;;;;5024779;28;20048;-77
2024/03/26 09:12:51;;;;;;;9.18;3.58;;;8.60;99.90;;;;;;5025143;28;20021;-77
2024/03/26 09:15:17;;;;;;;6.03;3.08;;;8.60;99.90;;;;;;5021418;28;20482;-77
2024/03/26 09:17:42;;;;;;;5.60;2.90;;;8.70;99.90;;;;;;5023843;28;20399;-77
2024/03/26 09:20:09;;;;;;;7.32;2.92;;;8.70;99.90;;;;;;5024600;28;20376;-77
2024/03/26 09:22:35;;;;;;;8.45;2.80;;;8.80;99.90;;;;;;5024612;28;20029;-77
2024/03/26 09:25:02;;;;;;;9.25;3.58;;;8.80;99.90;;;;;;5025847;28;20026;-77
2024/03/26 09:27:28;;;;;;;8.35;2.97;;;8.80;99.90;;;;;;5025716;28;20021;-77
2024/03/26 09:29:53;;;;;;;6.50;3.08;;;8.90;99.90;;;;;;5025045;28;20036;-77
2024/03/26 09:32:19;;;;;;;8.38;3.40;;;8.90;99.90;;;;;;5019469;28;20030;-77
2024/03/26 09:34:45;;;;;;;7.55;3.20;;;9.00;99.90;;;;;;5025631;28;20434;-77
2024/03/26 09:37:11;;;;;;;5.95;2.97;;;9.00;99.90;;;;;;5025364;28;20026;-78
2024/03/26 09:39:36;;;;;;;6.82;3.50;;;9.10;99.90;;;;;;5024196;28;20429;-77
2024/03/26 09:42:03;;;;;;;6.70;3.00;;;9.10;99.90;;;;;;5016020;28;20072;-77
2024/03/26 09:44:37;;;;;;;9.00;3.47;;;9.10;99.90;;;;;;5016164;28;20469;-77
2024/03/26 09:47:03;;;;;;;4.38;2.92;;;9.20;99.90;;;;;;5011767;28;20492;-77
2024/03/26 09:49:32;;;;;;;7.72;3.22;;;9.20;99.90;;;;;;5019287;28;20052;-77
2024/03/26 09:52:00;;;;;;;7.97;3.80;;;9.30;99.90;;;;;;5014327;28;20021;-77
2024/03/26 09:54:27;;;;;;;5.80;3.28;;;9.40;99.90;;;;;;5010474;28;20124;-77
2024/03/26 09:56:54;;;;;;;8.20;3.25;;;9.40;99.90;;;;;;5016934;28;20014;-77
2024/03/26 09:59:20;;;;;;;5.97;3.17;;;9.50;99.90;;;;;;5015676;28;20030;-77
2024/03/26 10:01:46;;;;;;;5.78;2.97;;;9.50;99.90;;;;;;5008634;28;20084;-77
2024/03/26 10:04:12;;;;;;;9.05;3.60;;;9.60;99.90;;;;;;5012148;28;20200;-78
2024/03/26 10:06:38;;;;;;;7.03;3.70;;;9.60;99.90;;;;;;5017636;28;20026;-77
2024/03/26 10:09:05;;;;;;;8.55;3.20;;;9.60;99.90;;;;;;5017387;28;20025;-76
2024/03/26 10:11:30;;;;;;;9.68;4.05;;;9.60;99.90;;;;;;5025599;28;20029;-76
2024/03/26 10:13:56;;;;;;;8.55;3.70;;;9.70;99.90;;;;;;5023503;28;20032;-75
2024/03/26 10:16:22;;;;;;;8.27;3.90;;;9.80;99.90;;;;;;5010735;28;20053;-76
2024/03/26 10:18:47;;;;;;;8.35;3.53;;;9.80;99.90;;;;;;5019288;28;20096;-76
2024/03/26 10:21:13;;;;;;;9.43;4.20;;;9.80;99.90;;;;;;5016897;28;20030;-77
2024/03/26 10:23:39;;;;;;;7.47;3.65;;;9.90;99.90;;;;;;5025331;28;20091;-76
2024/03/26 10:26:05;;;;;;;6.18;3.40;;;9.90;99.90;;;;;;5016229;28;20041;-76
2024/03/26 10:28:31;;;;;;;4.57;2.92;;;10.00;99.90;;;;;;5019999;28;20079;-75
2024/03/26 10:30:57;;;;;;;7.50;3.28;;;10.10;99.90;;;;;;5019242;28;20025;-76
2024/03/26 10:33:26;;;;;;;6.40;3.28;;;10.10;99.90;;;;;;5015250;28;20032;-76
2024/03/26 10:35:55;;;;;;;6.65;3.17;;;10.10;99.90;;;;;;5022832;28;20040;-76
2024/03/26 10:38:22;;;;;;;11.13;3.58;;;10.20;99.90;;;;;;5014048;28;20559;-76
2024/03/26 10:40:51;;;;;;;6.25;3.05;;;10.20;99.90;;;;;;5011399;28;20118;-75
2024/03/26 10:43:17;;;;;;;6.40;2.50;;;10.30;99.90;;;;;;5024322;28;20080;-76
2024/03/26 10:45:44;;;;;;;6.57;2.95;;;10.30;99.90;;;;;;5024753;28;20028;-76
2024/03/26 10:48:11;;;;;;;5.10;2.63;;;10.40;99.90;;;;;;5011549;28;20021;-76
2024/03/26 10:50:37;;;;;;;6.35;2.40;;;10.40;99.90;;;;;;5013708;28;20471;-76
2024/03/26 10:53:04;;;;;;;6.97;2.90;;;10.40;99.90;;;;;;5019335;28;20041;-76
2024/03/26 10:55:31;;;;;;;7.43;2.58;;;10.50;99.90;;;;;;5014763;28;20017;-75
2024/03/26 10:57:58;;;;;;;4.70;2.20;;;10.50;99.90;;;;;;5011148;28;20538;-76
2024/03/26 11:00:23;;;;;;;4.07;2.35;;;10.50;99.90;;;;;;5017337;28;20032;-76
2024/03/26 11:02:53;;;;;;;6.30;2.80;;;10.60;99.90;;;;;;5019653;28;20058;-75
2024/03/26 11:05:20;;;;;;;4.53;2.58;;;10.60;99.90;;;;;;5015393;28;20057;-77
2024/03/26 11:07:48;;;;;;;6.05;2.40;;;10.60;99.90;;;;;;5014531;28;20030;-77
2024/03/26 11:10:16;;;;;;;6.88;2.83;;;10.60;99.90;;;;;;5025739;28;20025;-75
2024/03/26 11:12:43;;;;;;;5.05;2.65;;;10.70;99.90;;;;;;5035429;28;20028;-76
2024/03/26 11:15:17;;;;;;;7.05;2.35;;;10.70;99.90;;;;;;5014386;28;20022;-76
2024/03/26 11:18:03;;;;;;;4.63;2.45;;;10.70;99.90;;;;;;5027913;28;20053;-76
2024/03/26 11:20:32;;;;;;;4.68;2.40;;;10.80;99.90;;;;;;5014190;28;20049;-76
2024/03/26 11:23:02;;;;;;;7.00;2.47;;;10.80;99.90;;;;;;5028611;28;20036;-76
2024/03/26 11:25:28;;;;;;;8.27;2.90;;;10.90;99.90;;;;;;5012936;28;20021;-76
2024/03/26 11:27:55;;;;;;;7.82;2.28;;;10.90;99.90;;;;;;5018081;28;20033;-76
2024/03/26 11:30:29;;;;;;;3.80;2.10;;;10.90;99.90;;;;;;5011913;28;20460;-76
2024/03/26 11:32:55;;;;;;;6.38;2.50;;;11.00;99.90;;;;;;5027689;28;20487;-75
2024/03/26 11:35:24;;;;;;;4.50;2.10;;;11.10;99.90;;;;;;5026369;28;20029;-76
2024/03/26 11:37:53;;;;;;;5.03;2.40;;;11.20;99.90;;;;;;5014334;28;20108;-76
2024/03/26 11:40:19;;;;;;;5.65;2.42;;;11.20;99.90;;;;;;5028170;28;20075;-75
2024/03/26 11:42:46;;;;;;;7.55;2.70;;;11.30;99.90;;;;;;5027117;28;20080;-75
2024/03/26 11:45:14;;;;;;;7.25;2.60;;;11.40;99.90;;;;;;5027290;28;20021;-75
2024/03/26 11:47:40;;;;;;;7.40;2.40;;;11.40;99.90;;;;;;5040345;28;20018;-76
2024/03/26 11:50:07;;;;;;;7.10;2.88;;;11.50;99.90;;;;;;5021526;28;20033;-77
2024/03/26 11:52:33;;;;;;;4.55;2.55;;;11.60;99.90;;;;;;5028290;28;20021;-76
2024/03/26 11:55:01;;;;;;;7.50;2.50;;;11.70;99.90;;;;;;5027306;28;20028;-74
2024/03/26 11:57:27;;;;;;;6.32;3.10;;;11.80;99.90;;;;;;5024651;28;20494;-75
2024/03/26 11:59:53;;;;;;;7.50;2.70;;;11.90;99.90;;;;;;5028009;28;20115;-76
2024/03/26 12:02:19;;;;;;;7.57;2.85;;;12.00;99.90;;;;;;5028519;28;20517;-76
2024/03/26 12:04:45;;;;;;;6.25;2.63;;;12.10;99.90;;;;;;5027852;28;20029;-76
2024/03/26 12:07:18;;;;;;;4.38;2.30;;;12.20;99.90;;;;;;5028667;28;20040;-75
2024/03/26 12:09:44;;;;;;;6.05;2.85;;;12.20;99.90;;;;;;5020709;28;20103;-75
2024/03/26 12:12:11;;;;;;;7.80;2.97;;;12.20;99.90;;;;;;5028756;28;20498;-76
2024/03/26 12:14:37;;;;;;;7.18;2.92;;;12.30;99.90;;;;;;5027643;28;20477;-76
2024/03/26 12:17:04;;;;;;;4.82;2.33;;;12.30;99.90;;;;;;5014445;28;20021;-76
2024/03/26 12:19:29;;;;;;;5.38;2.72;;;12.30;99.90;;;;;;5026831;28;20033;-76
2024/03/26 12:21:55;;;;;;;5.05;2.40;;;12.30;99.90;;;;;;5027799;28;20010;-76
2024/03/26 12:24:21;;;;;;;7.72;2.83;;;12.30;99.90;;;;;;5018846;28;20034;-76
2024/03/26 12:26:47;;;;;;;7.50;2.72;;;12.20;99.90;;;;;;5023011;28;20457;-76
2024/03/26 12:29:12;;;;;;;6.63;3.22;;;12.30;99.90;;;;;;5024991;28;20410;-76
2024/03/26 12:31:39;;;;;;;5.43;2.88;;;12.20;99.90;;;;;;5027046;28;20038;-75
2024/03/26 12:34:14;;;;;;;8.23;3.17;;;12.20;99.90;;;;;;5013563;28;20165;-75
2024/03/26 12:36:40;;;;;;;5.43;3.17;;;12.30;99.90;;;;;;5017626;28;20026;-76
2024/03/26 12:39:09;;;;;;;4.82;2.78;;;12.30;99.90;;;;;;5021029;28;20018;-76
2024/03/26 12:41:35;;;;;;;6.25;2.92;;;12.40;99.90;;;;;;5014080;28;20112;-75
2024/03/26 12:44:03;;;;;;;7.05;2.90;;;12.40;99.90;;;;;;5014413;28;20064;-76
2024/03/26 12:46:29;;;;;;;6.28;2.88;;;12.50;99.90;;;;;;5018864;28;20080;-76
2024/03/26 12:48:55;;;;;;;7.85;2.67;;;12.60;99.90;;;;;;5018341;28;20021;-75
2024/03/26 12:51:22;;;;;;;4.65;2.20;;;12.70;99.90;;;;;;5012421;28;20104;-77